Time;durP1;ratioP1;P1;durP2;ratioP2;P2;SDS_P1;SDS_P2;PMS_P1;PMS_P2;Temp;Humidity;BMP_temperature;BMP_pressure;BME280_temperature;BME280_humidity;BME280_pressure;Samples;Min_cycle;Max_cycle;Signal;HPM_P1;HPM_P2
2022/11/14 00:00:47;;;;;;;15.07;12.30;;;12.60;94.50;;;;;;5022266;28;20338;-66
2022/11/14 00:03:32;;;;;;;15.13;12.30;;;12.60;94.50;;;;;;5022743;28;20210;-66
2022/11/14 00:06:18;;;;;;;17.63;13.07;;;12.60;94.50;;;;;;5020108;28;20218;-66
2022/11/14 00:09:04;;;;;;;16.07;12.57;;;12.60;94.50;;;;;;5024362;28;20297;-66
2022/11/14 00:11:49;;;;;;;15.30;11.93;;;12.60;94.50;;;;;;5023580;28;20298;-66
2022/11/14 00:14:36;;;;;;;17.77;13.43;;;12.60;94.50;;;;;;5033026;28;20212;-66
2022/11/14 00:17:21;;;;;;;13.27;11.50;;;12.60;94.50;;;;;;5024619;28;20228;-66
2022/11/14 00:20:08;;;;;;;15.67;13.00;;;12.60;94.50;;;;;;5022746;28;20228;-66
2022/11/14 00:22:54;;;;;;;16.53;13.33;;;12.60;94.50;;;;;;5027040;28;20244;-66
2022/11/14 00:25:39;;;;;;;16.60;13.30;;;12.60;94.50;;;;;;5021206;28;20215;-66
2022/11/14 00:28:25;;;;;;;15.17;12.10;;;12.60;94.50;;;;;;5024715;28;20217;-66
2022/11/14 00:31:11;;;;;;;15.20;11.63;;;12.60;94.50;;;;;;5029985;28;20217;-66
2022/11/14 00:33:56;;;;;;;16.70;12.93;;;12.60;94.50;;;;;;5023210;28;20266;-66
2022/11/14 00:36:42;;;;;;;15.60;12.50;;;12.60;94.50;;;;;;5023497;28;20334;-66
2022/11/14 00:39:27;;;;;;;15.20;12.27;;;12.60;94.40;;;;;;5022932;28;20221;-65
2022/11/14 00:42:13;;;;;;;15.43;11.83;;;12.60;94.40;;;;;;5022645;28;20660;-66
2022/11/14 00:44:59;;;;;;;15.77;12.40;;;12.60;94.40;;;;;;5022240;28;20229;-66
2022/11/14 00:47:44;;;;;;;14.67;11.43;;;12.60;94.50;;;;;;5024734;28;20332;-66
2022/11/14 00:50:30;;;;;;;17.60;12.53;;;12.60;94.60;;;;;;5022572;28;20255;-66
2022/11/14 00:53:15;;;;;;;15.47;12.20;;;12.60;94.60;;;;;;5023673;28;20726;-66
2022/11/14 00:56:02;;;;;;;15.97;12.57;;;12.60;94.60;;;;;;5021418;28;20286;-66
2022/11/14 00:58:47;;;;;;;16.47;12.73;;;12.60;94.50;;;;;;5023399;28;20245;-66
2022/11/14 01:01:33;;;;;;;17.10;13.53;;;12.50;94.40;;;;;;5022213;28;20235;-66
2022/11/14 01:04:18;;;;;;;18.97;13.90;;;12.50;94.50;;;;;;5023279;28;20334;-66
2022/11/14 01:07:04;;;;;;;17.03;13.60;;;12.50;94.50;;;;;;5023580;28;20348;-66
2022/11/14 01:09:49;;;;;;;18.27;13.57;;;12.50;94.60;;;;;;5020812;28;20281;-66
2022/11/14 01:12:35;;;;;;;23.13;14.93;;;12.50;94.60;;;;;;5022818;28;20275;-66
2022/11/14 01:15:20;;;;;;;22.83;14.53;;;12.50;94.60;;;;;;5021570;28;20219;-66
2022/11/14 01:18:06;;;;;;;21.13;15.63;;;12.50;94.60;;;;;;5021401;28;20225;-66
2022/11/14 01:20:51;;;;;;;22.90;16.53;;;12.50;94.50;;;;;;5020926;28;20217;-66
2022/11/14 01:23:37;;;;;;;23.73;17.50;;;12.40;94.50;;;;;;5022244;28;20400;-66
2022/11/14 01:26:23;;;;;;;24.40;19.23;;;12.40;94.50;;;;;;5024109;28;20213;-66
2022/11/14 01:29:08;;;;;;;24.63;19.07;;;12.40;94.60;;;;;;5022014;28;20660;-66
2022/11/14 01:31:54;;;;;;;23.80;17.97;;;12.30;94.70;;;;;;5021392;28;20241;-66
2022/11/14 01:34:40;;;;;;;29.53;20.87;;;12.30;94.70;;;;;;5020454;28;20288;-66
2022/11/14 01:37:25;;;;;;;27.50;21.43;;;12.30;94.80;;;;;;5024580;28;20222;-66
2022/11/14 01:40:11;;;;;;;29.53;21.63;;;12.30;94.90;;;;;;5021406;28;20218;-66
2022/11/14 01:43:15;;;;;;;30.23;21.47;;;12.30;95.00;;;;;;5022152;28;20203;-66
2022/11/14 01:46:04;;;;;;;30.53;22.70;;;12.20;95.10;;;;;;5032362;28;20294;-66
2022/11/14 01:49:34;;;;;;;31.80;24.57;;;12.20;95.20;;;;;;5020473;28;20213;-66
2022/11/14 01:52:20;;;;;;;33.30;25.33;;;12.20;95.30;;;;;;5012521;28;20219;-66
2022/11/14 01:55:08;;;;;;;33.03;22.60;;;12.20;95.20;;;;;;5021373;28;20600;-66
2022/11/14 01:57:55;;;;;;;34.50;25.40;;;12.20;95.30;;;;;;5020995;28;20557;-66
2022/11/14 02:00:42;;;;;;;36.30;26.53;;;12.20;95.40;;;;;;5023354;28;20223;-66
2022/11/14 02:03:27;;;;;;;39.00;27.57;;;12.10;95.50;;;;;;5020739;28;20209;-66
2022/11/14 02:06:18;;;;;;;40.57;27.77;;;12.20;95.50;;;;;;5021844;28;20666;-66
2022/11/14 02:09:05;;;;;;;45.97;29.27;;;12.10;95.60;;;;;;5024877;28;20208;-66
2022/11/14 02:11:53;;;;;;;39.57;28.17;;;12.10;95.70;;;;;;5020908;28;20255;-66
2022/11/14 02:14:41;;;;;;;41.97;29.90;;;12.10;95.80;;;;;;5022294;28;20304;-66
2022/11/14 02:17:26;;;;;;;41.40;30.07;;;12.10;95.90;;;;;;5023251;28;20332;-66
2022/11/14 02:20:27;;;;;;;41.87;29.60;;;12.10;95.90;;;;;;5023169;28;20330;-66
2022/11/14 02:23:14;;;;;;;45.50;30.47;;;12.10;96.00;;;;;;5020379;28;20235;-66
2022/11/14 02:26:00;;;;;;;44.63;31.13;;;12.10;96.10;;;;;;5019216;28;20646;-66
2022/11/14 02:28:45;;;;;;;44.93;30.93;;;12.10;96.10;;;;;;5022536;28;20281;-66
2022/11/14 02:31:31;;;;;;;42.43;29.83;;;12.10;96.10;;;;;;5019600;28;20219;-66
2022/11/14 02:34:19;;;;;;;45.40;33.40;;;12.10;96.10;;;;;;5024849;28;20216;-66
2022/11/14 02:37:05;;;;;;;45.57;33.07;;;12.10;96.20;;;;;;5019870;28;20214;-66
2022/11/14 02:39:51;;;;;;;40.80;30.23;;;12.10;96.20;;;;;;5019127;28;20222;-66
2022/11/14 02:42:37;;;;;;;42.53;31.33;;;12.10;96.30;;;;;;5019838;28;20347;-66
2022/11/14 02:45:23;;;;;;;42.23;31.27;;;12.10;96.30;;;;;;5020507;28;20296;-66
2022/11/14 02:48:08;;;;;;;45.10;32.07;;;12.10;96.30;;;;;;5022081;28;20209;-66
2022/11/14 02:50:54;;;;;;;45.50;31.83;;;12.10;96.30;;;;;;5019709;28;20295;-66
2022/11/14 02:53:40;;;;;;;45.73;33.23;;;12.10;96.40;;;;;;5020642;28;20224;-66
2022/11/14 02:56:25;;;;;;;46.30;32.27;;;12.20;96.40;;;;;;5025723;28;20219;-66
2022/11/14 02:59:10;;;;;;;44.97;32.13;;;12.20;96.30;;;;;;5020235;28;20227;-66
2022/11/14 03:01:56;;;;;;;42.23;31.20;;;12.20;96.30;;;;;;5019482;28;20333;-66
2022/11/14 03:04:42;;;;;;;44.67;30.60;;;12.20;96.30;;;;;;5019995;28;20643;-66
2022/11/14 03:07:27;;;;;;;39.70;31.47;;;12.30;96.30;;;;;;5018527;28;20315;-66
2022/11/14 03:10:13;;;;;;;45.00;33.50;;;12.30;96.20;;;;;;5020549;28;20229;-66
2022/11/14 03:12:59;;;;;;;44.67;31.30;;;12.30;96.10;;;;;;5023598;28;20258;-66
2022/11/14 03:15:44;;;;;;;43.20;29.53;;;12.30;96.10;;;;;;5020670;28;20218;-66
2022/11/14 03:18:30;;;;;;;46.37;30.97;;;12.30;96.10;;;;;;5019968;28;20230;-66
2022/11/14 03:21:20;;;;;;;43.03;30.47;;;12.20;96.10;;;;;;5023974;28;20696;-66
2022/11/14 03:24:06;;;;;;;41.70;29.20;;;12.20;96.10;;;;;;5020890;28;20341;-66
2022/11/14 03:26:51;;;;;;;41.93;30.87;;;12.20;96.00;;;;;;5016393;28;20645;-66
2022/11/14 03:29:37;;;;;;;39.30;31.10;;;12.20;96.00;;;;;;5018891;28;20701;-66
2022/11/14 03:32:23;;;;;;;40.97;30.17;;;12.20;96.00;;;;;;5021743;28;20607;-66
2022/11/14 03:35:08;;;;;;;40.27;29.10;;;12.20;96.00;;;;;;5024778;28;20218;-66
2022/11/14 03:37:54;;;;;;;40.97;29.20;;;12.20;96.00;;;;;;5023684;28;20793;-66
2022/11/14 03:40:41;;;;;;;44.47;29.30;;;12.20;96.00;;;;;;5023732;28;20229;-66
2022/11/14 03:43:31;;;;;;;42.67;29.77;;;12.20;96.00;;;;;;5025152;28;20211;-66
2022/11/14 03:46:17;;;;;;;39.23;29.57;;;12.20;96.00;;;;;;5022855;28;20260;-66
2022/11/14 03:49:02;;;;;;;35.57;26.87;;;12.20;96.00;;;;;;5019900;28;20722;-66
2022/11/14 03:51:47;;;;;;;36.90;27.73;;;12.20;96.00;;;;;;5023381;28;20235;-66
2022/11/14 03:54:33;;;;;;;40.03;29.77;;;12.20;96.00;;;;;;5023762;28;20225;-66
2022/11/14 03:57:18;;;;;;;39.87;28.87;;;12.20;96.00;;;;;;5021741;28;20215;-66
2022/11/14 04:00:04;;;;;;;35.87;26.90;;;12.20;95.90;;;;;;5021084;28;20669;-66
2022/11/14 04:02:50;;;;;;;36.10;27.23;;;12.20;95.80;;;;;;5025204;28;20279;-66
2022/11/14 04:05:36;;;;;;;39.07;27.97;;;12.20;95.70;;;;;;5021444;28;20220;-66
2022/11/14 04:08:21;;;;;;;40.17;28.43;;;12.20;95.70;;;;;;5024531;28;20553;-66
2022/11/14 04:11:07;;;;;;;36.70;27.33;;;12.20;95.70;;;;;;5022573;28;20214;-66
2022/11/14 04:13:52;;;;;;;35.23;25.77;;;12.20;95.60;;;;;;5024591;28;20544;-66
2022/11/14 04:16:38;;;;;;;34.03;25.40;;;12.20;95.60;;;;;;5026245;28;20228;-66
2022/11/14 04:19:23;;;;;;;36.13;26.67;;;12.20;95.50;;;;;;5021866;28;20233;-66
2022/11/14 04:22:10;;;;;;;37.63;27.47;;;12.20;95.50;;;;;;5024614;28;20323;-66
2022/11/14 04:24:55;;;;;;;33.07;25.97;;;12.10;95.50;;;;;;5023425;28;20281;-66
2022/11/14 04:27:41;;;;;;;33.83;24.90;;;12.10;95.40;;;;;;5022545;28;20213;-66
2022/11/14 04:30:27;;;;;;;32.10;24.93;;;12.10;95.40;;;;;;5020473;28;20257;-66
2022/11/14 04:33:18;;;;;;;33.50;24.53;;;12.10;95.40;;;;;;5023814;28;20552;-66
2022/11/14 04:36:04;;;;;;;40.53;26.87;;;12.10;95.40;;;;;;5023807;28;20692;-66
2022/11/14 04:38:49;;;;;;;36.70;27.60;;;12.10;95.40;;;;;;5019145;28;20573;-66
2022/11/14 04:41:35;;;;;;;33.20;25.00;;;12.00;95.40;;;;;;5023237;28;20220;-66
2022/11/14 04:44:20;;;;;;;33.83;24.17;;;12.00;95.30;;;;;;5021357;28;20297;-66
2022/11/14 04:47:06;;;;;;;33.23;24.57;;;12.00;95.30;;;;;;5025935;28;20269;-66
2022/11/14 04:49:51;;;;;;;36.17;25.60;;;11.90;95.20;;;;;;5020174;28;20276;-66
2022/11/14 04:52:37;;;;;;;35.67;26.03;;;11.90;95.20;;;;;;5020849;28;20215;-66
2022/11/14 04:55:22;;;;;;;36.90;26.00;;;11.80;95.20;;;;;;5021512;28;20229;-66
2022/11/14 04:58:08;;;;;;;32.63;23.73;;;11.80;95.20;;;;;;5024914;28;20540;-66
2022/11/14 05:00:56;;;;;;;33.00;24.17;;;11.70;95.20;;;;;;5021015;28;20219;-66
2022/11/14 05:03:42;;;;;;;34.20;24.00;;;11.60;95.20;;;;;;5020728;28;20224;-66
2022/11/14 05:06:27;;;;;;;35.57;24.70;;;11.60;95.30;;;;;;5023429;28;20292;-66
2022/11/14 05:09:13;;;;;;;32.43;23.23;;;11.60;95.30;;;;;;5022318;28;20214;-66
2022/11/14 05:11:58;;;;;;;30.03;22.03;;;11.50;95.30;;;;;;5020388;28;20242;-66
2022/11/14 05:14:44;;;;;;;28.40;19.83;;;11.50;95.30;;;;;;5023161;28;20214;-66
2022/11/14 05:17:30;;;;;;;30.57;22.57;;;11.40;95.30;;;;;;5024584;28;20246;-66
2022/11/14 05:20:16;;;;;;;33.87;24.13;;;11.40;95.30;;;;;;5023646;28;20238;-66
2022/11/14 05:23:01;;;;;;;30.37;23.00;;;11.40;95.20;;;;;;5019224;28;20332;-66
2022/11/14 05:25:57;;;;;;;30.13;24.17;;;11.40;95.10;;;;;;5017649;28;20685;-66
2022/11/14 05:28:43;;;;;;;34.27;23.97;;;11.40;95.10;;;;;;5023570;28;20229;-66
2022/11/14 05:31:28;;;;;;;33.37;23.33;;;11.40;95.30;;;;;;5022748;28;20347;-66
2022/11/14 05:34:14;;;;;;;34.00;24.70;;;11.40;95.30;;;;;;5023001;28;20291;-66
2022/11/14 05:36:59;;;;;;;35.37;25.10;;;11.40;95.40;;;;;;5021591;28;20320;-66
2022/11/14 05:39:45;;;;;;;34.93;26.83;;;11.50;95.50;;;;;;5021307;28;20277;-66
2022/11/14 05:42:31;;;;;;;38.50;27.13;;;11.50;95.60;;;;;;5023932;28;20469;-66
2022/11/14 05:45:16;;;;;;;35.73;26.50;;;11.50;95.60;;;;;;5022118;28;20312;-66
2022/11/14 05:48:02;;;;;;;35.97;26.37;;;11.50;95.60;;;;;;5019299;28;20203;-66
2022/11/14 05:50:47;;;;;;;33.40;24.83;;;11.50;95.60;;;;;;5020920;28;20274;-66
2022/11/14 05:53:33;;;;;;;33.87;24.90;;;11.50;95.60;;;;;;5023288;28;20243;-66
2022/11/14 05:56:19;;;;;;;35.93;26.30;;;11.60;95.60;;;;;;5027918;28;20212;-66
2022/11/14 05:59:05;;;;;;;35.20;25.10;;;11.50;95.60;;;;;;5018687;28;20285;-66
2022/11/14 06:01:50;;;;;;;32.50;23.83;;;11.60;95.70;;;;;;5022111;28;20322;-66
2022/11/14 06:04:36;;;;;;;30.53;22.77;;;11.60;95.70;;;;;;5018398;28;20225;-66
2022/11/14 06:07:22;;;;;;;26.13;20.63;;;11.60;95.70;;;;;;5020543;28;20532;-66
2022/11/14 06:10:07;;;;;;;27.27;21.33;;;11.50;95.70;;;;;;5021946;28;20297;-66
2022/11/14 06:12:53;;;;;;;31.60;23.60;;;11.50;95.60;;;;;;5021277;28;20269;-66
2022/11/14 06:15:38;;;;;;;31.63;23.17;;;11.50;95.60;;;;;;5022000;28;20266;-66
2022/11/14 06:18:24;;;;;;;28.27;20.80;;;11.50;95.60;;;;;;5022143;28;20226;-66
2022/11/14 06:21:16;;;;;;;33.67;24.43;;;11.40;95.50;;;;;;5019926;28;20233;-66
2022/11/14 06:24:03;;;;;;;36.00;24.40;;;11.40;95.60;;;;;;5021714;28;20285;-66
2022/11/14 06:26:51;;;;;;;32.53;24.20;;;11.40;95.60;;;;;;5024499;28;20252;-66
2022/11/14 06:29:37;;;;;;;32.40;24.63;;;11.50;95.70;;;;;;5022349;28;20351;-67
2022/11/14 06:32:23;;;;;;;35.40;25.73;;;11.50;95.70;;;;;;5021845;28;20205;-66
2022/11/14 06:35:08;;;;;;;38.27;25.03;;;11.50;95.70;;;;;;5014965;28;20205;-66
2022/11/14 06:37:53;;;;;;;34.57;26.17;;;11.50;95.70;;;;;;5017445;28;20215;-66
2022/11/14 06:40:39;;;;;;;36.03;27.17;;;11.50;95.70;;;;;;5020351;28;20236;-66
2022/11/14 06:43:24;;;;;;;34.83;25.03;;;11.50;95.70;;;;;;5022380;28;20546;-66
2022/11/14 06:46:12;;;;;;;37.47;25.80;;;11.50;95.80;;;;;;5020012;28;20208;-66
2022/11/14 06:48:58;;;;;;;37.50;26.40;;;11.60;95.80;;;;;;5022730;28;20208;-66
2022/11/14 06:51:44;;;;;;;31.10;23.43;;;11.60;96.10;;;;;;5031781;28;20209;-66
2022/11/14 06:54:30;;;;;;;29.97;23.03;;;11.60;95.80;;;;;;5022804;28;20218;-66
2022/11/14 06:57:15;;;;;;;38.00;26.43;;;11.60;95.70;;;;;;5023026;28;20206;-66
2022/11/14 07:00:01;;;;;;;36.90;25.60;;;11.60;95.70;;;;;;5024763;28;20675;-66
2022/11/14 07:02:47;;;;;;;36.43;27.40;;;11.60;95.60;;;;;;5023402;28;20223;-66
2022/11/14 07:05:33;;;;;;;36.40;27.57;;;11.70;95.50;;;;;;5047253;28;20225;-66
2022/11/14 07:08:18;;;;;;;41.43;30.20;;;11.70;95.60;;;;;;5021503;28;20215;-66
2022/11/14 07:11:10;;;;;;;37.80;27.67;;;11.70;95.60;;;;;;5027982;28;20666;-66
2022/11/14 07:13:57;;;;;;;43.50;30.77;;;11.70;95.60;;;;;;5023784;28;20215;-66
2022/11/14 07:16:42;;;;;;;43.90;31.00;;;11.70;95.70;;;;;;5027611;28;20212;-66
2022/11/14 07:19:28;;;;;;;42.20;31.70;;;11.70;95.60;;;;;;5023532;28;20317;-66
2022/11/14 07:22:13;;;;;;;46.07;32.83;;;11.80;95.70;;;;;;5023602;28;20244;-66
2022/11/14 07:24:59;;;;;;;48.10;33.50;;;11.80;95.70;;;;;;5022728;28;20219;-66
2022/11/14 07:27:44;;;;;;;44.77;33.07;;;11.90;95.80;;;;;;5020516;28;20225;-66
2022/11/14 07:30:30;;;;;;;46.90;33.33;;;11.90;95.90;;;;;;5024877;28;20236;-66
2022/11/14 07:33:15;;;;;;;43.97;32.77;;;11.90;95.90;;;;;;5022523;28;20216;-66
2022/11/14 07:36:01;;;;;;;49.03;33.30;;;12.00;95.90;;;;;;5026102;28;20211;-66
2022/11/14 07:38:46;;;;;;;45.87;32.97;;;12.10;95.90;;;;;;5024206;28;20210;-66
2022/11/14 07:41:32;;;;;;;48.17;33.80;;;12.20;95.90;;;;;;5023271;28;20336;-66
2022/11/14 07:44:18;;;;;;;44.37;32.93;;;12.20;95.90;;;;;;5023152;28;20252;-66
2022/11/14 07:47:03;;;;;;;45.03;33.63;;;12.30;95.90;;;;;;5020558;28;20213;-66
2022/11/14 07:49:49;;;;;;;45.07;32.20;;;12.40;95.90;;;;;;5024925;28;20542;-66
2022/11/14 07:52:35;;;;;;;41.97;32.07;;;12.40;95.80;;;;;;5024705;28;20344;-66
2022/11/14 07:55:20;;;;;;;42.40;31.00;;;12.50;95.70;;;;;;5023683;28;20211;-66
2022/11/14 07:58:06;;;;;;;44.23;32.73;;;12.50;95.60;;;;;;5027696;28;20349;-66
2022/11/14 08:00:51;;;;;;;44.83;32.07;;;12.50;95.50;;;;;;5024494;28;20372;-66
2022/11/14 08:03:37;;;;;;;44.17;31.20;;;12.60;95.40;;;;;;5025851;28;20301;-66
2022/11/14 08:06:29;;;;;;;42.00;31.13;;;12.60;95.40;;;;;;5023388;28;20211;-66
2022/11/14 08:09:15;;;;;;;42.60;33.60;;;12.70;95.30;;;;;;5024771;28;20410;-66
2022/11/14 08:12:00;;;;;;;46.20;32.60;;;12.70;95.10;;;;;;5024163;28;20281;-66
2022/11/14 08:14:46;;;;;;;41.50;30.47;;;12.70;95.00;;;;;;5021713;28;20204;-66
2022/11/14 08:17:31;;;;;;;43.73;32.63;;;12.70;95.10;;;;;;5027118;28;20218;-66
2022/11/14 08:20:17;;;;;;;41.07;31.43;;;12.70;95.10;;;;;;5017812;28;20687;-66
2022/11/14 08:23:04;;;;;;;40.87;30.63;;;12.70;95.10;;;;;;5022724;28;20265;-66
2022/11/14 08:25:50;;;;;;;43.57;31.90;;;12.70;95.20;;;;;;5020889;28;20210;-66
2022/11/14 08:28:35;;;;;;;41.10;31.57;;;12.80;95.30;;;;;;5023277;28;20203;-66
2022/11/14 08:31:21;;;;;;;40.60;29.93;;;12.80;95.30;;;;;;5028919;28;20265;-66
2022/11/14 08:34:07;;;;;;;41.67;32.37;;;12.90;95.20;;;;;;5021981;28;20212;-66
2022/11/14 08:36:52;;;;;;;40.10;29.73;;;12.90;95.00;;;;;;5020573;28;20213;-66
2022/11/14 08:39:37;;;;;;;41.97;30.30;;;13.00;95.10;;;;;;5022562;28;20258;-66
2022/11/14 08:42:23;;;;;;;40.87;30.27;;;13.10;95.10;;;;;;5024997;28;20228;-66
2022/11/14 08:45:09;;;;;;;39.47;30.37;;;13.20;95.10;;;;;;5025283;28;20254;-66
2022/11/14 08:47:54;;;;;;;37.17;27.50;;;13.30;95.00;;;;;;5022775;28;20204;-66
2022/11/14 08:50:40;;;;;;;35.67;27.87;;;13.40;94.90;;;;;;5020053;28;20694;-66
2022/11/14 08:53:25;;;;;;;45.20;30.00;;;13.50;94.80;;;;;;5022891;28;20261;-66
2022/11/14 08:56:11;;;;;;;38.80;28.30;;;13.70;94.70;;;;;;5021751;28;20329;-66
2022/11/14 08:58:56;;;;;;;33.70;26.40;;;13.80;94.50;;;;;;5024053;28;20218;-66
2022/11/14 09:01:42;;;;;;;37.73;27.27;;;13.90;94.20;;;;;;5023637;28;20289;-66
2022/11/14 09:04:28;;;;;;;36.63;27.37;;;13.90;94.00;;;;;;5027328;28;20307;-66
2022/11/14 09:07:14;;;;;;;36.47;26.53;;;14.00;93.80;;;;;;5022284;28;20680;-66
2022/11/14 09:09:59;;;;;;;33.57;24.70;;;14.10;93.60;;;;;;5024085;28;20269;-66
2022/11/14 09:12:45;;;;;;;34.77;25.80;;;14.10;92.80;;;;;;5023221;28;20544;-66
2022/11/14 09:15:32;;;;;;;34.50;26.10;;;14.20;92.70;;;;;;5022654;28;20741;-66
2022/11/14 09:18:17;;;;;;;33.00;25.37;;;14.20;92.70;;;;;;5024073;28;20307;-66
2022/11/14 09:21:05;;;;;;;35.37;26.10;;;14.30;92.70;;;;;;5022565;28;20320;-66
2022/11/14 09:23:51;;;;;;;34.20;25.77;;;14.40;92.80;;;;;;5026343;28;20220;-66
2022/11/14 09:26:43;;;;;;;31.77;24.83;;;14.60;92.80;;;;;;5023976;28;20201;-66
2022/11/14 09:29:28;;;;;;;33.30;24.33;;;14.80;92.40;;;;;;5020880;28;20216;-66
2022/11/14 09:32:14;;;;;;;29.20;23.47;;;15.00;92.10;;;;;;5024676;28;20319;-66
2022/11/14 09:34:59;;;;;;;26.37;22.07;;;15.20;91.20;;;;;;5024348;28;20315;-66
2022/11/14 09:37:45;;;;;;;31.67;22.63;;;15.30;90.70;;;;;;5024441;28;20313;-66
2022/11/14 09:40:45;;;;;;;26.40;21.70;;;15.30;90.10;;;;;;5022100;28;20703;-66
2022/11/14 09:43:49;;;;;;;23.70;18.47;;;15.40;90.10;;;;;;5024683;28;20226;-66
2022/11/14 09:46:48;;;;;;;23.53;18.47;;;15.50;89.50;;;;;;5021428;28;20397;-66
2022/11/14 09:49:40;;;;;;;24.17;18.03;;;15.50;87.80;;;;;;5030354;28;20210;-68
2022/11/14 09:52:46;;;;;;;27.10;18.23;;;15.50;87.20;;;;;;5023498;28;20234;-68
2022/11/14 09:55:33;;;;;;;26.07;18.07;;;15.60;86.90;;;;;;5020847;28;20214;-68
2022/11/14 09:58:21;;;;;;;23.07;17.67;;;15.60;86.50;;;;;;5021073;28;20641;-62
2022/11/14 10:01:25;;;;;;;24.70;19.60;;;15.70;85.80;;;;;;5026573;28;20357;-63
2022/11/14 10:04:43;;;;;;;21.93;17.07;;;15.80;85.50;;;;;;5020315;28;20583;-64
2022/11/14 10:07:44;;;;;;;25.90;18.73;;;15.80;84.70;;;;;;5009077;28;20230;-64
2022/11/14 10:10:44;;;;;;;23.70;17.97;;;15.80;84.20;;;;;;5023425;28;20293;-66
2022/11/14 10:13:54;;;;;;;23.77;18.47;;;15.80;84.50;;;;;;5026459;28;20290;-63
2022/11/14 10:17:03;;;;;;;21.23;16.97;;;15.70;83.20;;;;;;5020927;28;20290;-62
2022/11/14 10:20:22;;;;;;;23.07;17.63;;;15.60;83.60;;;;;;5021307;28;20254;-63
2022/11/14 10:23:34;;;;;;;20.50;17.20;;;15.60;84.20;;;;;;5020472;28;20795;-63
2022/11/14 10:26:28;;;;;;;25.17;17.83;;;15.70;84.10;;;;;;5022393;28;20211;-63
2022/11/14 10:29:37;;;;;;;23.83;17.73;;;15.70;83.50;;;;;;5018312;28;20756;-65
2022/11/14 10:32:39;;;;;;;26.00;21.00;;;15.70;83.60;;;;;;5023066;28;20207;-64
2022/11/14 10:35:34;;;;;;;22.80;19.27;;;15.70;83.80;;;;;;5025205;28;20547;-64
2022/11/14 10:38:29;;;;;;;25.87;20.03;;;15.70;83.60;;;;;;5022236;28;20798;-66
2022/11/14 10:41:16;;;;;;;26.87;18.30;;;15.70;84.00;;;;;;5020944;28;20797;-66
2022/11/14 10:44:31;;;;;;;22.73;18.13;;;15.70;83.90;;;;;;5023894;28;20317;-65
2022/11/14 10:47:21;;;;;;;22.67;18.20;;;15.70;83.80;;;;;;5022256;28;20210;-64
2022/11/14 10:50:20;;;;;;;21.30;17.27;;;15.70;84.10;;;;;;5018246;28;20209;-64
2022/11/14 10:53:22;;;;;;;22.50;17.37;;;15.70;84.50;;;;;;5019847;28;20679;-66
2022/11/14 10:56:11;;;;;;;23.53;18.30;;;15.70;84.10;;;;;;5019786;28;20216;-64
2022/11/14 10:58:57;;;;;;;25.63;18.83;;;15.70;84.00;;;;;;5022687;28;20273;-65
2022/11/14 11:01:45;;;;;;;20.27;16.40;;;15.70;83.80;;;;;;5021929;28;20225;-65
2022/11/14 11:04:35;;;;;;;22.20;16.63;;;15.70;84.00;;;;;;5024021;28;20207;-65
2022/11/14 11:13:52;;;;;;;21.60;15.67;;;16.00;83.80;;;;;;5021429;28;20548;-63
2022/11/14 11:16:37;;;;;;;17.77;14.27;;;16.20;83.30;;;;;;5019709;28;20281;-64
2022/11/14 11:19:25;;;;;;;23.57;15.57;;;16.30;81.70;;;;;;5028171;28;20222;-65
2022/11/14 11:22:36;;;;;;;20.23;15.17;;;16.30;81.40;;;;;;5019036;28;20251;-64
2022/11/14 11:25:28;;;;;;;20.07;16.07;;;16.30;81.30;;;;;;5021864;28;20603;-62
2022/11/14 11:28:14;;;;;;;18.43;15.10;;;16.30;81.30;;;;;;5023616;28;20194;-65
2022/11/14 11:31:09;;;;;;;18.60;15.03;;;16.20;81.00;;;;;;5020996;28;20684;-63
2022/11/14 11:33:54;;;;;;;21.27;14.77;;;16.20;81.70;;;;;;5023820;28;20216;-63
2022/11/14 11:36:46;;;;;;;17.67;14.03;;;16.20;81.80;;;;;;5019922;28;20238;-65
2022/11/14 11:39:36;;;;;;;19.63;15.73;;;16.20;81.50;;;;;;5015401;28;20230;-62
2022/11/14 11:42:41;;;;;;;21.40;16.60;;;16.30;81.60;;;;;;5020932;28;20656;-65
2022/11/14 11:45:48;;;;;;;20.97;18.07;;;16.30;81.20;;;;;;5020842;28;20214;-66
2022/11/14 11:48:39;;;;;;;18.63;16.20;;;16.30;81.00;;;;;;5021954;28;20222;-65
2022/11/14 11:51:26;;;;;;;20.63;15.87;;;16.30;80.90;;;;;;5019224;28;20218;-67
2022/11/14 11:54:17;;;;;;;19.00;14.87;;;16.20;80.80;;;;;;5025727;28;20206;-64
2022/11/14 11:57:11;;;;;;;20.00;15.47;;;16.20;81.00;;;;;;5022283;28;20222;-66
2022/11/14 12:00:12;;;;;;;20.10;15.77;;;16.10;81.30;;;;;;5025765;28;20551;-65
2022/11/14 12:02:58;;;;;;;20.00;15.33;;;16.10;81.20;;;;;;5027553;28;20222;-65
2022/11/14 12:06:05;;;;;;;20.33;15.73;;;16.10;81.40;;;;;;5022135;28;20270;-64
2022/11/14 12:09:06;;;;;;;18.37;15.47;;;16.10;81.50;;;;;;5024145;28;20214;-64
2022/11/14 12:11:59;;;;;;;18.67;15.07;;;16.20;81.10;;;;;;5023938;28;20297;-64
2022/11/14 12:15:12;;;;;;;22.10;15.87;;;16.30;80.30;;;;;;5021640;28;20342;-66
2022/11/14 12:18:15;;;;;;;22.43;16.23;;;16.50;79.90;;;;;;5024997;28;20683;-64
2022/11/14 12:21:40;;;;;;;21.67;17.57;;;16.50;79.30;;;;;;5025820;28;20237;-63
2022/11/14 12:25:13;;;;;;;20.43;16.87;;;16.60;79.40;;;;;;5026613;28;20218;-63
2022/11/14 12:28:11;;;;;;;21.07;15.73;;;16.60;79.40;;;;;;5029432;28;20214;-65
2022/11/14 12:31:02;;;;;;;20.87;16.13;;;16.60;79.50;;;;;;5025405;28;20763;-64
2022/11/14 12:34:00;;;;;;;17.57;15.17;;;16.70;79.00;;;;;;5024315;28;20221;-64
2022/11/14 12:36:45;;;;;;;21.17;16.00;;;16.80;78.00;;;;;;5024238;28;20216;-64
2022/11/14 12:39:31;;;;;;;19.23;16.13;;;16.90;78.10;;;;;;5022606;28;20218;-63
2022/11/14 12:42:20;;;;;;;17.40;14.77;;;17.00;78.00;;;;;;5024599;28;20230;-63
2022/11/14 12:45:40;;;;;;;16.50;14.63;;;17.20;76.80;;;;;;5022299;28;20195;-65
2022/11/14 12:48:25;;;;;;;18.07;14.50;;;17.20;76.50;;;;;;5028958;28;20211;-63
2022/11/14 12:51:24;;;;;;;16.10;13.53;;;17.20;76.50;;;;;;5021730;28;20211;-64
2022/11/14 12:54:45;;;;;;;19.57;15.73;;;17.10;75.00;;;;;;5025769;28;20217;-63
2022/11/14 12:57:50;;;;;;;17.30;15.50;;;16.90;75.40;;;;;;5021750;28;20285;-65
2022/11/14 13:00:45;;;;;;;19.17;14.63;;;16.80;76.10;;;;;;5025802;28;20280;-64
2022/11/14 13:04:02;;;;;;;20.33;15.33;;;16.70;76.80;;;;;;5023751;28;20285;-64
2022/11/14 13:07:24;;;;;;;16.60;13.23;;;16.60;77.60;;;;;;5020686;28;20219;-65
2022/11/14 13:10:28;;;;;;;13.67;10.70;;;16.70;77.60;;;;;;5018117;28;20547;-65
2022/11/14 13:22:42;;;;;;;15.00;12.17;;;16.70;76.70;;;;;;5029523;28;20254;-65
2022/11/14 13:25:27;;;;;;;17.90;13.17;;;16.60;76.80;;;;;;5018055;28;20232;-65
2022/11/14 13:28:35;;;;;;;14.57;13.00;;;16.50;77.10;;;;;;5022206;28;20218;-65
2022/11/14 13:31:23;;;;;;;17.30;15.50;;;16.60;77.60;;;;;;5022112;28;20296;-65
2022/11/14 13:34:45;;;;;;;16.47;14.60;;;16.60;77.90;;;;;;5022781;28;20219;-65
2022/11/14 13:37:54;;;;;;;18.13;15.40;;;16.60;78.00;;;;;;5018989;28;20555;-65
2022/11/14 13:41:04;;;;;;;16.73;14.97;;;16.60;78.20;;;;;;5019502;28;20245;-65
2022/11/14 13:44:12;;;;;;;18.67;15.67;;;16.50;77.20;;;;;;5027592;28;20206;-64
2022/11/14 13:47:24;;;;;;;20.20;16.50;;;16.50;77.10;;;;;;5019279;28;20581;-63
2022/11/14 13:50:23;;;;;;;17.37;15.37;;;16.40;77.50;;;;;;5021899;28;20310;-65
2022/11/14 13:53:19;;;;;;;22.80;17.00;;;16.30;77.90;;;;;;5024368;28;20211;-64
2022/11/14 13:56:23;;;;;;;17.77;15.63;;;16.30;77.90;;;;;;5023759;28;20210;-64
2022/11/14 13:59:35;;;;;;;20.27;16.97;;;16.30;77.50;;;;;;5017185;28;20206;-66
2022/11/14 14:02:54;;;;;;;19.47;17.03;;;16.20;77.30;;;;;;5022303;28;20218;-64
2022/11/14 14:06:21;;;;;;;17.80;15.50;;;16.10;78.30;;;;;;5024502;28;20250;-64
2022/11/14 14:09:14;;;;;;;19.40;16.20;;;16.10;78.80;;;;;;5009370;28;20287;-65
2022/11/14 14:12:51;;;;;;;18.70;16.33;;;16.10;78.80;;;;;;5016423;28;20214;-65
2022/11/14 14:16:04;;;;;;;22.77;15.83;;;16.00;78.20;;;;;;5013430;28;20222;-64
2022/11/14 14:18:58;;;;;;;18.60;16.03;;;16.00;78.10;;;;;;5016751;28;20282;-64
2022/11/14 14:22:09;;;;;;;19.33;15.20;;;16.00;78.50;;;;;;5022602;28;20247;-63
2022/11/14 14:25:23;;;;;;;19.83;16.00;;;16.00;78.60;;;;;;5019700;28;20567;-64
2022/11/14 14:28:24;;;;;;;19.03;14.77;;;16.00;78.30;;;;;;5020177;28;20276;-65
2022/11/14 14:31:15;;;;;;;17.13;14.97;;;15.90;77.80;;;;;;5025794;28;20273;-64
2022/11/14 14:34:00;;;;;;;17.27;14.70;;;15.90;78.20;;;;;;5020957;28;20206;-64
2022/11/14 14:36:51;;;;;;;18.27;14.43;;;15.90;78.50;;;;;;5022450;28;20322;-64
2022/11/14 14:39:36;;;;;;;16.73;14.93;;;15.80;78.80;;;;;;5021991;28;20693;-65
2022/11/14 14:42:23;;;;;;;17.40;15.47;;;15.80;79.60;;;;;;5022922;28;20229;-65